createdAt,value
2022-09-15T00:01:10.764Z,99642.22
2022-09-15T00:03:39.038Z,99641.41
2022-09-15T00:06:07.339Z,99642.53
2022-09-15T00:08:34.548Z,99628.41
2022-09-15T00:11:18.820Z,99636.47
2022-09-15T00:13:46.458Z,99630.41
2022-09-15T00:16:15.744Z,99631.38
2022-09-15T00:18:44.717Z,99636.63
2022-09-15T00:21:17.747Z,99647.47
2022-09-15T00:23:45.602Z,99645.88
2022-09-15T00:26:18.034Z,99641.56
2022-09-15T00:28:45.877Z,99638.44
2022-09-15T00:31:22.936Z,99644.84
2022-09-15T00:33:53.762Z,99639.75
2022-09-15T00:36:22.367Z,99639.91
2022-09-15T00:38:49.492Z,99632.31
2022-09-15T00:41:20.705Z,99629.63
2022-09-15T00:43:58.082Z,99631.75
2022-09-15T00:46:31.951Z,99630.25
2022-09-15T00:49:20.190Z,99633.84
2022-09-15T00:52:03.403Z,99630.56
2022-09-15T00:54:48.532Z,99624.38
2022-09-15T00:58:07.527Z,99633.75
2022-09-15T01:00:35.253Z,99625.97
2022-09-15T01:03:03.155Z,99629.13
2022-09-15T01:05:46.129Z,99631.38
2022-09-15T01:08:34.476Z,99628.91
2022-09-15T01:11:02.670Z,99631.75
2022-09-15T01:13:29.810Z,99631.59
2022-09-15T01:16:31.574Z,99633.16
2022-09-15T01:19:52.542Z,99640.91
2022-09-15T01:23:06.314Z,99636.50
2022-09-15T01:26:47.071Z,99636.47
2022-09-15T01:29:51.056Z,99634.13
2022-09-15T01:32:56.007Z,99643.69
2022-09-15T01:35:45.744Z,99639.06
2022-09-15T01:38:36.546Z,99639.78
2022-09-15T01:41:24.864Z,99640.28
2022-09-15T01:44:21.471Z,99639.78
2022-09-15T01:47:00.442Z,99646.13
2022-09-15T01:49:46.618Z,99641.44
2022-09-15T01:52:17.889Z,99649.13
2022-09-15T01:54:51.235Z,99643.63
2022-09-15T01:57:21.878Z,99651.38
2022-09-15T01:59:51.715Z,99649.66
2022-09-15T02:02:43.975Z,99648.00
2022-09-15T02:05:25.627Z,99655.59
2022-09-15T02:08:12.855Z,99659.94
2022-09-15T02:11:06.840Z,99650.41
2022-09-15T02:14:14.083Z,99651.03
2022-09-15T02:16:48.793Z,99642.25
2022-09-15T02:19:47.037Z,99641.16
2022-09-15T02:22:33.115Z,99646.69
2022-09-15T02:25:13.056Z,99645.72
2022-09-15T02:27:54.979Z,99646.31
2022-09-15T02:30:22.753Z,99654.69
2022-09-15T02:32:58.104Z,99657.63
2022-09-15T02:35:28.947Z,99652.31
2022-09-15T02:37:57.989Z,99649.19
2022-09-15T02:40:25.047Z,99644.84
2022-09-15T02:42:56.857Z,99646.78
2022-09-15T02:45:27.798Z,99639.63
2022-09-15T02:47:54.875Z,99642.97
2022-09-15T02:50:21.909Z,99647.25
2022-09-15T02:52:52.218Z,99644.56
2022-09-15T02:55:19.154Z,99645.47
2022-09-15T02:57:46.090Z,99648.88
2022-09-15T03:00:16.750Z,99656.00
2022-09-15T03:02:50.040Z,99654.81
2022-09-15T03:05:22.602Z,99651.22
2022-09-15T03:07:50.186Z,99649.50
2022-09-15T03:10:17.930Z,99648.88
2022-09-15T03:12:49.413Z,99644.19
2022-09-15T03:15:24.590Z,99639.03
2022-09-15T03:17:52.605Z,99645.72
2022-09-15T03:20:30.249Z,99652.25
2022-09-15T03:22:57.232Z,99646.66
2022-09-15T03:25:26.847Z,99648.97
2022-09-15T03:27:54.030Z,99644.63
2022-09-15T03:30:21.174Z,99642.63
2022-09-15T03:32:48.679Z,99644.84
2022-09-15T03:35:15.700Z,99643.28
2022-09-15T03:37:42.887Z,99636.63
2022-09-15T03:40:10.809Z,99641.09
2022-09-15T03:42:37.835Z,99645.09
2022-09-15T03:45:05.373Z,99642.28
2022-09-15T03:47:35.338Z,99642.53
2022-09-15T03:50:02.463Z,99645.59
2022-09-15T03:52:32.055Z,99643.94
2022-09-15T03:54:59.286Z,99646.94
2022-09-15T03:57:26.260Z,99645.59
2022-09-15T03:59:53.481Z,99645.44
2022-09-15T04:02:20.954Z,99645.97
2022-09-15T04:04:49.434Z,99639.53
2022-09-15T04:07:16.385Z,99640.69
2022-09-15T04:09:43.313Z,99638.78
2022-09-15T04:12:10.946Z,99627.63
2022-09-15T04:14:37.959Z,99638.69
2022-09-15T04:17:04.895Z,99627.63
2022-09-15T04:19:32.063Z,99624.09
2022-09-15T04:21:59.079Z,99621.16
2022-09-15T04:24:26.445Z,99631.59
2022-09-15T04:26:53.473Z,99638.19
2022-09-15T04:29:20.531Z,99629.56
2022-09-15T04:31:48.116Z,99628.50
2022-09-15T04:34:18.396Z,99625.47
2022-09-15T04:36:46.517Z,99630.94
2022-09-15T04:39:14.032Z,99632.25
2022-09-15T04:41:41.093Z,99626.53
2022-09-15T04:44:08.777Z,99629.81
2022-09-15T04:46:35.924Z,99632.59
2022-09-15T04:49:03.546Z,99633.47
2022-09-15T04:51:30.932Z,99631.69
2022-09-15T04:53:59.655Z,99622.34
2022-09-15T04:56:27.411Z,99624.34
2022-09-15T04:59:04.010Z,99626.72
2022-09-15T05:01:35.211Z,99626.78
2022-09-15T05:04:04.408Z,99625.19
2022-09-15T05:06:31.698Z,99622.72
2022-09-15T05:08:58.815Z,99624.38
2022-09-15T05:11:27.169Z,99621.78
2022-09-15T05:13:54.847Z,99621.78
2022-09-15T05:16:29.447Z,99623.41
2022-09-15T05:19:03.042Z,99620.13
2022-09-15T05:21:30.279Z,99623.94
2022-09-15T05:23:57.712Z,99627.56
2022-09-15T05:26:28.717Z,99632.16
2022-09-15T05:28:57.347Z,99624.09
2022-09-15T05:31:31.423Z,99628.63
2022-09-15T05:34:02.930Z,99626.38
2022-09-15T05:36:30.869Z,99620.91
2022-09-15T05:38:58.387Z,99621.47
2022-09-15T05:41:27.722Z,99632.34
2022-09-15T05:43:57.387Z,99626.44
2022-09-15T05:46:26.496Z,99630.91
2022-09-15T05:48:56.291Z,99638.03
2022-09-15T05:51:24.421Z,99639.84
2022-09-15T05:53:51.545Z,99646.44
2022-09-15T05:56:20.061Z,99635.63
2022-09-15T05:58:49.315Z,99639.22
2022-09-15T06:01:22.370Z,99637.31
2022-09-15T06:03:50.096Z,99640.91
2022-09-15T06:06:17.839Z,99640.75
2022-09-15T06:08:58.049Z,99638.94
2022-09-15T06:11:31.161Z,99637.44
2022-09-15T06:14:03.648Z,99635.97
2022-09-15T06:16:35.048Z,99645.66
2022-09-15T06:19:02.171Z,99642.16
2022-09-15T06:21:31.724Z,99647.09
2022-09-15T06:24:06.994Z,99645.50
2022-09-15T06:26:34.828Z,99650.28
2022-09-15T06:29:05.107Z,99654.38
2022-09-15T06:31:34.394Z,99649.13
2022-09-15T06:34:03.748Z,99648.78
2022-09-15T06:36:31.702Z,99650.59
2022-09-15T06:38:59.513Z,99650.09
2022-09-15T06:41:38.174Z,99646.50
2022-09-15T06:44:14.918Z,99638.59
2022-09-15T06:46:41.896Z,99639.28
2022-09-15T06:49:09.205Z,99642.75
2022-09-15T06:51:36.326Z,99642.06
2022-09-15T06:54:05.422Z,99648.13
2022-09-15T06:56:37.665Z,99659.31
2022-09-15T06:59:05.882Z,99661.56
2022-09-15T07:01:33.437Z,99668.88
2022-09-15T07:04:04.170Z,99674.28
2022-09-15T07:06:33.540Z,99683.00
2022-09-15T07:09:02.389Z,99682.34
2022-09-15T07:11:30.778Z,99674.63
2022-09-15T07:13:58.072Z,99673.63
2022-09-15T07:16:28.092Z,99669.34
2022-09-15T07:18:57.215Z,99677.25
2022-09-15T07:21:24.725Z,99671.19
2022-09-15T07:23:51.982Z,99677.72
2022-09-15T07:26:29.594Z,99679.38
2022-09-15T07:29:06.781Z,99680.34
2022-09-15T07:31:37.564Z,99676.16
2022-09-15T07:34:05.916Z,99687.84
2022-09-15T07:36:33.241Z,99682.41
2022-09-15T07:39:00.243Z,99680.94
2022-09-15T07:41:31.029Z,99687.13
2022-09-15T07:44:02.923Z,99698.31
2022-09-15T07:46:32.566Z,99701.38
2022-09-15T07:49:00.886Z,99702.38
2022-09-15T07:51:27.855Z,99707.41
2022-09-15T07:53:55.205Z,99698.94
2022-09-15T07:56:24.554Z,99707.97
2022-09-15T07:58:52.395Z,99701.22
2022-09-15T08:01:22.340Z,99702.72
2022-09-15T08:03:52.549Z,99709.09
2022-09-15T08:06:29.874Z,99698.03
2022-09-15T08:09:00.686Z,99693.31
2022-09-15T08:11:29.378Z,99705.16
2022-09-15T08:13:56.498Z,99700.94
2022-09-15T08:16:25.085Z,99697.88
2022-09-15T08:18:54.074Z,99696.97
2022-09-15T08:21:22.284Z,99703.25
2022-09-15T08:24:02.354Z,99698.84
2022-09-15T08:26:30.334Z,99702.09
2022-09-15T08:28:58.467Z,99702.78
2022-09-15T08:31:25.627Z,99704.13
2022-09-15T08:33:55.492Z,99705.91
2022-09-15T08:36:22.992Z,99703.06
2022-09-15T08:38:50.100Z,99694.97
2022-09-15T08:41:46.670Z,99698.47
2022-09-15T08:44:44.258Z,99693.44
2022-09-15T08:47:41.847Z,99697.28
2022-09-15T08:50:43.387Z,99702.94
2022-09-15T08:53:19.842Z,99715.59
2022-09-15T08:56:05.421Z,99712.47
2022-09-15T08:58:37.699Z,99710.31
2022-09-15T09:01:32.881Z,99697.44
2022-09-15T09:04:30.302Z,99701.47
2022-09-15T09:07:36.196Z,99699.28
2022-09-15T09:10:19.939Z,99695.09
2022-09-15T09:13:05.390Z,99702.72
2022-09-15T09:15:57.719Z,99692.63
2022-09-15T09:19:08.065Z,99705.94
2022-09-15T09:21:57.841Z,99702.16
2022-09-15T09:24:41.220Z,99701.94
2022-09-15T09:27:20.514Z,99699.66
2022-09-15T09:30:07.449Z,99698.91
2022-09-15T09:33:38.732Z,99702.66
2022-09-15T09:36:06.111Z,99706.81
2022-09-15T09:38:41.748Z,99700.22
2022-09-15T09:41:19.914Z,99708.34
2022-09-15T09:43:49.276Z,99702.50
2022-09-15T09:46:19.461Z,99702.81
2022-09-15T09:49:18.655Z,99697.72
2022-09-15T09:51:57.354Z,99689.69
2022-09-15T09:54:29.962Z,99695.13
2022-09-15T09:57:31.752Z,99696.59
2022-09-15T10:00:01.914Z,99702.50
2022-09-15T10:02:29.296Z,99696.28
2022-09-15T10:05:20.280Z,99699.91
2022-09-15T10:07:50.111Z,99694.56
2022-09-15T10:10:28.612Z,99694.56
2022-09-15T10:12:56.791Z,99695.56
2022-09-15T10:15:35.367Z,99693.00
2022-09-15T10:18:05.371Z,99698.38
2022-09-15T10:20:51.423Z,99702.91
2022-09-15T10:23:18.872Z,99700.28
2022-09-15T10:26:01.594Z,99699.00
2022-09-15T10:28:29.097Z,99699.91
2022-09-15T10:31:32.128Z,99696.06
2022-09-15T10:34:01.300Z,99697.06
2022-09-15T10:36:32.320Z,99685.97
2022-09-15T10:39:48.459Z,99694.16
2022-09-15T10:43:21.106Z,99688.66
2022-09-15T10:46:09.159Z,99695.34
2022-09-15T10:49:16.037Z,99695.84
2022-09-15T10:52:31.819Z,99692.69
2022-09-15T10:55:53.251Z,99694.31
2022-09-15T10:58:46.897Z,99689.94
2022-09-15T11:01:29.573Z,99686.78
2022-09-15T11:04:30.015Z,99689.88
2022-09-15T11:08:10.897Z,99690.56
2022-09-15T11:11:05.227Z,99701.84
2022-09-15T11:13:51.734Z,99687.66
2022-09-15T11:17:11.113Z,99685.41
2022-09-15T11:19:50.323Z,99682.84
2022-09-15T11:22:28.791Z,99702.81
2022-09-15T11:25:20.322Z,99695.44
2022-09-15T11:28:33.058Z,99694.56
2022-09-15T11:31:15.362Z,99695.81
2022-09-15T11:33:58.589Z,99687.16
2022-09-15T11:37:14.269Z,99678.53
2022-09-15T11:40:21.976Z,99681.13
2022-09-15T11:43:13.321Z,99685.09
2022-09-15T11:45:51.874Z,99676.25
2022-09-15T11:48:40.097Z,99688.38
2022-09-15T11:51:07.794Z,99676.84
2022-09-15T11:53:50.894Z,99688.13
2022-09-15T11:56:42.022Z,99681.28
2022-09-15T11:59:46.890Z,99693.50
2022-09-15T12:02:51.656Z,99700.00
2022-09-15T12:05:30.038Z,99699.72
2022-09-15T12:08:23.949Z,99694.91
2022-09-15T12:10:56.003Z,99703.56
2022-09-15T12:13:25.668Z,99716.13
2022-09-15T12:15:53.690Z,99713.81
2022-09-15T12:18:41.027Z,99714.59
2022-09-15T12:21:38.912Z,99715.22
2022-09-15T12:24:38.173Z,99713.25
2022-09-15T12:27:05.151Z,99702.28
2022-09-15T12:29:42.602Z,99710.31
2022-09-15T12:32:31.920Z,99708.84
2022-09-15T12:35:19.997Z,99705.84
2022-09-15T12:37:59.042Z,99701.81
2022-09-15T12:40:40.018Z,99703.72
2022-09-15T12:43:13.386Z,99692.22
2022-09-15T12:46:00.090Z,99703.38
2022-09-15T12:48:35.156Z,99686.06
2022-09-15T12:51:10.292Z,99699.31
2022-09-15T12:54:00.922Z,99683.47
2022-09-15T12:56:31.935Z,99684.59
2022-09-15T12:59:11.652Z,99675.56
2022-09-15T13:01:49.708Z,99683.31
2022-09-15T13:04:43.546Z,99673.78
2022-09-15T13:07:34.464Z,99679.13
2022-09-15T13:10:41.292Z,99671.41
2022-09-15T13:13:47.490Z,99682.44
2022-09-15T13:16:43.726Z,99680.03
2022-09-15T13:19:46.473Z,99675.00
2022-09-15T13:22:35.625Z,99674.59
2022-09-15T13:25:13.679Z,99675.59
2022-09-15T13:27:54.150Z,99677.16
2022-09-15T13:30:21.265Z,99675.56
2022-09-15T13:40:12.896Z,99661.28
2022-09-15T13:43:10.903Z,99666.38
2022-09-15T13:46:39.709Z,99656.91
2022-09-15T13:50:14.872Z,99655.97
2022-09-15T13:53:33.415Z,99650.22
2022-09-15T13:56:08.842Z,99643.56
2022-09-15T14:01:25.199Z,99639.00
2022-09-15T14:04:03.807Z,99644.00
2022-09-15T14:06:38.978Z,99636.75
2022-09-15T14:09:39.487Z,99633.41
2022-09-15T14:12:12.071Z,99624.75
2022-09-15T14:14:54.606Z,99629.66
2022-09-15T14:17:28.621Z,99624.41
2022-09-15T14:20:01.667Z,99630.25
2022-09-15T14:22:32.996Z,99635.09
2022-09-15T14:25:08.506Z,99620.28
2022-09-15T14:27:42.819Z,99625.53
2022-09-15T14:30:39.775Z,99629.19
2022-09-15T14:33:06.938Z,99630.84
2022-09-15T14:35:38.154Z,99639.63
2022-09-15T14:38:05.478Z,99640.44
2022-09-15T14:40:38.042Z,99645.78
2022-09-15T14:43:55.508Z,99648.16
2022-09-15T14:46:22.568Z,99654.59
2022-09-15T14:48:52.538Z,99650.59
2022-09-15T14:51:25.822Z,99639.94
2022-09-15T14:53:56.837Z,99641.63
2022-09-15T14:56:31.511Z,99640.56
2022-09-15T14:59:19.333Z,99641.84
2022-09-15T15:02:19.677Z,99641.72
2022-09-15T15:05:00.424Z,99634.47
2022-09-15T15:07:35.106Z,99638.09
2022-09-15T15:10:35.894Z,99636.88
2022-09-15T15:13:16.251Z,99645.56
2022-09-15T15:15:44.353Z,99645.09
2022-09-15T15:18:38.850Z,99645.59
2022-09-15T15:21:36.155Z,99660.84
2022-09-15T15:24:23.803Z,99654.88
2022-09-15T15:26:51.479Z,99669.56
2022-09-15T15:29:43.160Z,99684.97
2022-09-15T15:32:31.237Z,99683.09
2022-09-15T15:35:04.174Z,99694.38
2022-09-15T15:37:33.954Z,99704.53
2022-09-15T15:40:13.237Z,99706.22
2022-09-15T15:43:00.758Z,99700.31
2022-09-15T15:45:34.561Z,99693.81
2022-09-15T15:48:04.275Z,99689.56
2022-09-15T15:50:36.060Z,99697.34
2022-09-15T15:53:03.206Z,99694.81
2022-09-15T15:55:41.917Z,99689.31
2022-09-15T15:58:12.565Z,99711.41
2022-09-15T16:00:54.610Z,99705.81
2022-09-15T16:03:22.988Z,99701.09
2022-09-15T16:05:58.533Z,99702.44
2022-09-15T16:08:38.011Z,99711.75
2022-09-15T16:11:08.037Z,99708.97
2022-09-15T16:13:35.285Z,99710.50
2022-09-15T16:16:07.882Z,99700.38
2022-09-15T16:18:36.917Z,99701.06
2022-09-15T16:21:03.950Z,99696.75
2022-09-15T16:23:31.599Z,99695.09
2022-09-15T16:26:07.917Z,99696.63
2022-09-15T16:28:34.838Z,99701.63
2022-09-15T16:31:02.204Z,99699.03
2022-09-15T16:33:29.364Z,99696.25
2022-09-15T16:36:06.712Z,99699.28
2022-09-15T16:38:35.953Z,99702.28
2022-09-15T16:41:11.499Z,99700.25
2022-09-15T16:43:38.565Z,99694.66
2022-09-15T16:46:06.908Z,99704.22
2022-09-15T16:48:34.293Z,99697.44
2022-09-15T16:51:20.878Z,99698.19
2022-09-15T16:53:51.010Z,99697.09
2022-09-15T16:56:18.967Z,99699.69
2022-09-15T16:58:45.974Z,99695.66
2022-09-15T17:01:21.558Z,99694.81
2022-09-15T17:03:48.967Z,99694.44
2022-09-15T17:06:17.674Z,99705.50
2022-09-15T17:08:45.487Z,99690.88
2022-09-15T17:11:20.044Z,99683.75
2022-09-15T17:13:47.934Z,99686.59
2022-09-15T17:16:22.052Z,99685.88
2022-09-15T17:18:49.392Z,99688.94
2022-09-15T17:21:18.784Z,99681.53
2022-09-15T17:23:50.389Z,99686.53
2022-09-15T17:26:24.652Z,99691.06
2022-09-15T17:28:55.424Z,99696.19
2022-09-15T17:31:24.742Z,99688.28
2022-09-15T17:33:53.423Z,99695.16
2022-09-15T17:36:20.577Z,99707.25
2022-09-15T17:38:48.877Z,99706.19
2022-09-15T17:41:22.321Z,99703.75
2022-09-15T17:43:49.623Z,99707.09
2022-09-15T17:46:16.759Z,99702.94
2022-09-15T17:48:43.765Z,99709.75
2022-09-15T17:51:19.562Z,99709.25
2022-09-15T17:53:47.603Z,99712.53
2022-09-15T17:56:14.646Z,99708.91
2022-09-15T17:58:41.846Z,99715.00
2022-09-15T18:01:14.657Z,99724.69
2022-09-15T18:03:44.561Z,99719.31
2022-09-15T18:06:12.300Z,99726.81
2022-09-15T18:08:39.499Z,99725.69
2022-09-15T18:11:07.531Z,99724.00
2022-09-15T18:13:34.976Z,99727.66
2022-09-15T18:16:13.897Z,99725.53
2022-09-15T18:18:41.490Z,99722.13
2022-09-15T18:21:20.268Z,99732.47
2022-09-15T18:23:47.238Z,99733.09
2022-09-15T18:26:14.190Z,99720.78
2022-09-15T18:28:41.119Z,99728.84
2022-09-15T18:31:12.535Z,99724.59
2022-09-15T18:33:39.694Z,99731.00
2022-09-15T18:36:07.984Z,99726.41
2022-09-15T18:38:35.036Z,99727.06
2022-09-15T18:41:02.408Z,99723.13
2022-09-15T18:43:29.536Z,99733.31
2022-09-15T18:46:01.358Z,99734.47
2022-09-15T18:48:29.237Z,99744.47
2022-09-15T18:50:56.673Z,99747.47
2022-09-15T18:53:24.155Z,99752.06
2022-09-15T18:55:51.108Z,99760.22
2022-09-15T18:58:19.257Z,99754.94
2022-09-15T19:00:46.844Z,99751.84
2022-09-15T19:03:14.528Z,99749.69
2022-09-15T19:05:41.763Z,99750.41
2022-09-15T19:08:09.217Z,99749.28
2022-09-15T19:10:39.367Z,99750.41
2022-09-15T19:13:06.605Z,99752.06
2022-09-15T19:15:34.534Z,99759.06
2022-09-15T19:18:02.065Z,99750.41
2022-09-15T19:20:29.380Z,99751.34
2022-09-15T19:22:58.063Z,99750.03
2022-09-15T19:25:25.087Z,99749.72
2022-09-15T19:27:52.131Z,99745.16
2022-09-15T19:30:19.137Z,99741.16
2022-09-15T19:32:46.185Z,99739.16
2022-09-15T19:35:13.971Z,99733.47
2022-09-15T19:37:42.914Z,99736.06
2022-09-15T19:40:14.464Z,99737.88
2022-09-15T19:42:44.054Z,99734.91
2022-09-15T19:45:12.894Z,99733.28
2022-09-15T19:47:41.039Z,99731.03
2022-09-15T19:50:10.262Z,99747.06
2022-09-15T19:52:37.644Z,99750.19
2022-09-15T19:55:07.378Z,99752.97
2022-09-15T19:57:34.461Z,99756.59
2022-09-15T20:00:01.508Z,99761.03
2022-09-15T20:02:28.450Z,99759.53
2022-09-15T20:04:55.458Z,99761.84
2022-09-15T20:07:22.543Z,99752.13
2022-09-15T20:09:49.533Z,99755.09
2022-09-15T20:12:16.583Z,99764.78
2022-09-15T20:14:43.565Z,99768.19
2022-09-15T20:17:10.880Z,99766.75
2022-09-15T20:19:38.171Z,99775.56
2022-09-15T20:22:05.118Z,99780.47
2022-09-15T20:24:32.159Z,99771.78
2022-09-15T20:26:59.439Z,99775.75
2022-09-15T20:29:26.443Z,99777.19
2022-09-15T20:31:53.822Z,99782.66
2022-09-15T20:34:20.776Z,99776.91
2022-09-15T20:36:47.762Z,99769.22
2022-09-15T20:39:16.056Z,99784.41
2022-09-15T20:41:45.324Z,99775.97
2022-09-15T20:44:12.703Z,99780.47
2022-09-15T20:46:39.948Z,99775.81
2022-09-15T20:49:07.752Z,99776.81
2022-09-15T20:51:35.136Z,99784.69
2022-09-15T20:54:04.833Z,99780.56
2022-09-15T20:56:35.432Z,99776.13
2022-09-15T20:59:04.479Z,99781.66
2022-09-15T21:01:38.276Z,99776.66
2022-09-15T21:04:08.400Z,99780.94
2022-09-15T21:06:35.953Z,99778.88
2022-09-15T21:09:03.858Z,99778.94
2022-09-15T21:11:31.302Z,99781.69
2022-09-15T21:13:58.857Z,99786.94
2022-09-15T21:16:28.621Z,99784.97
2022-09-15T21:18:58.469Z,99782.75
2022-09-15T21:21:32.575Z,99781.81
2022-09-15T21:24:07.189Z,99785.09
2022-09-15T21:26:57.562Z,99783.19
2022-09-15T21:29:25.242Z,99784.53
2022-09-15T21:31:52.704Z,99792.50
2022-09-15T21:34:20.137Z,99796.50
2022-09-15T21:36:47.247Z,99792.03
2022-09-15T21:39:14.279Z,99781.56
2022-09-15T21:41:41.442Z,99785.41
2022-09-15T21:44:09.723Z,99783.16
2022-09-15T21:46:36.637Z,99786.94
2022-09-15T21:49:03.633Z,99795.09
2022-09-15T21:51:31.088Z,99789.94
2022-09-15T21:54:00.017Z,99793.69
2022-09-15T21:56:29.464Z,99791.06
2022-09-15T21:58:56.514Z,99781.50
2022-09-15T22:01:31.832Z,99797.94
2022-09-15T22:04:03.418Z,99796.94
2022-09-15T22:06:37.573Z,99803.59
2022-09-15T22:09:16.938Z,99809.06
2022-09-15T22:11:44.244Z,99809.41
2022-09-15T22:14:13.015Z,99813.16
2022-09-15T22:16:42.125Z,99814.63
2022-09-15T22:19:11.795Z,99816.06
2022-09-15T22:21:41.704Z,99813.69
2022-09-15T22:24:12.901Z,99826.66
2022-09-15T22:26:42.383Z,99827.88
2022-09-15T22:29:09.717Z,99830.25
2022-09-15T22:31:36.813Z,99828.69
2022-09-15T22:34:04.266Z,99833.03
2022-09-15T22:36:32.267Z,99829.91
2022-09-15T22:39:04.590Z,99829.53
2022-09-15T22:41:38.783Z,99825.63
2022-09-15T22:44:16.064Z,99828.75
2022-09-15T22:46:43.005Z,99825.84
2022-09-15T22:49:09.957Z,99831.94
2022-09-15T22:51:36.906Z,99824.44
2022-09-15T22:54:04.074Z,99831.63
2022-09-15T22:56:31.034Z,99828.03
2022-09-15T22:58:58.015Z,99829.28
2022-09-15T23:01:30.511Z,99823.75
2022-09-15T23:04:01.795Z,99827.13
2022-09-15T23:06:33.826Z,99823.84
2022-09-15T23:09:09.032Z,99829.22
2022-09-15T23:11:39.634Z,99827.34
2022-09-15T23:14:17.646Z,99829.84
2022-09-15T23:16:45.083Z,99830.66
2022-09-15T23:19:13.572Z,99824.88
2022-09-15T23:21:40.731Z,99826.91
2022-09-15T23:24:08.690Z,99823.53
2022-09-15T23:26:35.747Z,99828.19
2022-09-15T23:29:02.695Z,99827.13
2022-09-15T23:31:29.683Z,99826.84
2022-09-15T23:33:56.710Z,99828.19
2022-09-15T23:36:23.890Z,99828.56
2022-09-15T23:38:50.852Z,99822.81
2022-09-15T23:41:18.990Z,99828.25
2022-09-15T23:43:46.595Z,99830.53
2022-09-15T23:46:14.068Z,99831.19
2022-09-15T23:48:41.625Z,99825.25
2022-09-15T23:51:08.970Z,99828.91
2022-09-15T23:53:36.177Z,99829.38
2022-09-15T23:56:03.793Z,99841.56
2022-09-15T23:58:30.929Z,99829.97
